createdAt,value
2022-10-23T00:00:41.961Z,28.63
2022-10-23T00:03:43.688Z,27.55
2022-10-23T00:06:45.452Z,29.17
2022-10-23T00:09:47.003Z,30.03
2022-10-23T00:12:48.704Z,29.10
2022-10-23T00:18:51.844Z,28.55
2022-10-23T00:21:53.442Z,29.75
2022-10-23T00:24:54.996Z,27.47
2022-10-23T00:27:59.573Z,29.50
2022-10-23T00:31:04.988Z,26.08
2022-10-23T00:34:08.552Z,32.40
2022-10-23T00:37:10.559Z,31.80
2022-10-23T00:40:12.526Z,29.30
2022-10-23T00:43:21.255Z,25.67
2022-10-23T00:46:22.866Z,32.08
2022-10-23T00:49:25.557Z,30.35
2022-10-23T00:52:27.218Z,28.33
2022-10-23T00:55:28.943Z,26.20
2022-10-23T00:58:34.005Z,29.00
2022-10-23T01:01:35.788Z,28.27
2022-10-23T01:04:37.457Z,30.02
2022-10-23T01:07:51.997Z,27.08
2022-10-23T01:11:01.147Z,26.00
2022-10-23T01:14:38.262Z,27.13
2022-10-23T01:18:03.221Z,26.02
2022-10-23T01:21:08.765Z,29.27
2022-10-23T01:24:37.456Z,26.38
2022-10-23T01:27:40.258Z,25.50
2022-10-23T01:30:43.506Z,26.57
2022-10-23T01:33:47.940Z,29.35
2022-10-23T01:36:49.637Z,28.25
2022-10-23T01:39:53.096Z,25.38
2022-10-23T01:42:59.627Z,26.43
2022-10-23T01:46:03.370Z,26.67
2022-10-23T01:49:06.719Z,25.38
2022-10-23T01:52:09.593Z,27.75
2022-10-23T01:55:11.296Z,30.35
2022-10-23T01:58:19.983Z,25.90
2022-10-23T02:01:22.783Z,30.30
2022-10-23T02:04:29.977Z,25.70
2022-10-23T02:07:31.541Z,25.60
2022-10-23T02:10:41.304Z,28.27
2022-10-23T02:13:47.582Z,28.47
2022-10-23T02:16:53.729Z,31.77
2022-10-23T02:20:12.588Z,31.02
2022-10-23T02:23:21.382Z,30.20
2022-10-23T02:26:34.344Z,34.17
2022-10-23T02:29:43.099Z,30.43
2022-10-23T02:32:52.394Z,30.00
2022-10-23T02:35:53.982Z,29.83
2022-10-23T02:38:55.709Z,34.20
2022-10-23T02:42:25.959Z,26.85
2022-10-23T02:45:52.727Z,25.93
2022-10-23T02:49:05.898Z,23.90
2022-10-23T02:52:17.633Z,27.13
2022-10-23T02:55:34.644Z,26.42
2022-10-23T02:59:00.991Z,27.70
2022-10-23T03:02:06.917Z,27.33
2022-10-23T03:05:10.787Z,26.67
2022-10-23T03:08:13.418Z,24.30
2022-10-23T03:11:15.039Z,27.25
2022-10-23T03:14:16.613Z,33.78
2022-10-23T03:17:22.378Z,32.67
2022-10-23T03:20:24.135Z,27.63
2022-10-23T03:23:25.742Z,26.33
2022-10-23T03:26:27.320Z,25.95
2022-10-23T03:29:31.824Z,25.23
2022-10-23T03:32:33.425Z,27.00
2022-10-23T03:35:35.154Z,28.07
2022-10-23T03:38:36.755Z,25.23
2022-10-23T03:41:38.325Z,24.08
2022-10-23T03:44:43.182Z,29.33
2022-10-23T03:47:45.479Z,27.33
2022-10-23T03:50:47.203Z,27.00
2022-10-23T03:53:48.783Z,30.02
2022-10-23T03:56:53.612Z,28.60
2022-10-23T03:59:58.182Z,27.20
2022-10-23T04:02:59.763Z,25.23
2022-10-23T04:06:01.372Z,22.50
2022-10-23T04:09:02.986Z,29.05
2022-10-23T04:12:04.903Z,26.30
2022-10-23T04:15:11.363Z,21.75
2022-10-23T04:18:12.948Z,22.23
2022-10-23T04:21:14.523Z,24.00
2022-10-23T04:24:16.103Z,21.42
2022-10-23T04:27:17.726Z,22.83
2022-10-23T04:30:19.268Z,18.55
2022-10-23T04:33:20.916Z,27.80
2022-10-23T04:36:22.486Z,33.43
2022-10-23T04:39:24.075Z,18.15
2022-10-23T04:45:35.010Z,38.47
2022-10-23T04:48:36.641Z,48.03
2022-10-23T04:51:38.626Z,33.07
2022-10-23T04:54:40.208Z,25.33
2022-10-23T04:57:41.779Z,16.42
2022-10-23T05:00:47.320Z,21.88
2022-10-23T05:03:48.987Z,46.30
2022-10-23T05:06:50.604Z,37.33
2022-10-23T05:09:52.309Z,22.13
2022-10-23T05:12:54.009Z,25.67
2022-10-23T05:15:55.665Z,38.20
2022-10-23T05:18:57.279Z,29.47
2022-10-23T05:21:58.858Z,19.67
2022-10-23T05:25:02.214Z,24.27
2022-10-23T05:28:03.948Z,21.08
2022-10-23T05:31:05.694Z,15.77
2022-10-23T05:34:09.888Z,17.93
2022-10-23T05:37:14.509Z,21.10
2022-10-23T05:40:16.155Z,25.77
2022-10-23T05:43:17.740Z,18.92
2022-10-23T05:46:23.185Z,23.75
2022-10-23T05:49:25.475Z,22.87
2022-10-23T05:52:27.065Z,14.80
2022-10-23T05:55:28.689Z,24.88
2022-10-23T05:58:30.735Z,15.82
2022-10-23T06:01:32.472Z,18.10
2022-10-23T06:04:35.294Z,14.20
2022-10-23T06:07:36.933Z,15.03
2022-10-23T06:10:38.484Z,17.60
2022-10-23T06:13:42.018Z,16.17
2022-10-23T06:16:43.605Z,14.35
2022-10-23T06:19:46.203Z,17.43
2022-10-23T06:22:47.793Z,14.53
2022-10-23T06:25:54.633Z,17.05
2022-10-23T06:28:56.556Z,14.40
2022-10-23T06:31:58.153Z,11.13
2022-10-23T06:34:59.725Z,18.77
2022-10-23T06:38:01.317Z,13.30
2022-10-23T06:41:03.241Z,18.73
2022-10-23T06:44:04.913Z,16.33
2022-10-23T06:47:06.880Z,19.33
2022-10-23T06:50:11.775Z,15.63
2022-10-23T06:53:16.177Z,22.23
2022-10-23T06:56:17.754Z,14.60
2022-10-23T06:59:19.753Z,15.73
2022-10-23T07:02:21.345Z,23.65
2022-10-23T07:05:27.350Z,21.53
2022-10-23T07:08:28.954Z,21.73
2022-10-23T07:11:30.530Z,13.52
2022-10-23T07:14:32.387Z,20.95
2022-10-23T07:17:33.960Z,14.23
2022-10-23T07:20:35.587Z,20.20
2022-10-23T07:23:37.223Z,9.37
2022-10-23T07:26:38.874Z,10.30
2022-10-23T07:29:40.571Z,11.45
2022-10-23T07:32:42.273Z,12.93
2022-10-23T07:35:46.205Z,15.83
2022-10-23T07:38:47.770Z,13.30
2022-10-23T07:41:49.527Z,9.10
2022-10-23T07:44:51.094Z,10.63
2022-10-23T07:47:52.747Z,10.45
2022-10-23T07:50:57.516Z,8.77
2022-10-23T07:53:59.116Z,10.03
2022-10-23T07:57:00.820Z,10.02
2022-10-23T08:00:02.422Z,12.35
2022-10-23T08:03:04.030Z,14.55
2022-10-23T08:06:05.778Z,13.97
2022-10-23T08:09:07.377Z,15.07
2022-10-23T08:12:09.783Z,12.38
2022-10-23T08:15:11.364Z,25.65
2022-10-23T08:18:13.273Z,29.63
2022-10-23T08:21:15.145Z,34.80
2022-10-23T08:24:16.740Z,85.77
2022-10-23T08:27:18.350Z,113.38
2022-10-23T08:30:19.978Z,125.32
2022-10-23T08:33:21.548Z,150.77
2022-10-23T08:36:27.699Z,152.47
2022-10-23T08:39:29.277Z,131.63
2022-10-23T08:42:30.848Z,129.98
2022-10-23T08:45:52.679Z,121.05
2022-10-23T08:48:59.590Z,124.78
2022-10-23T08:52:03.117Z,104.57
2022-10-23T08:55:16.914Z,70.00
2022-10-23T08:59:08.222Z,43.10
2022-10-23T09:02:27.087Z,38.17
2022-10-23T09:05:38.073Z,39.88
2022-10-23T09:08:39.593Z,25.90
2022-10-23T09:11:56.168Z,25.47
2022-10-23T09:15:05.338Z,34.85
2022-10-23T09:18:16.314Z,36.13
2022-10-23T09:21:21.018Z,35.65
2022-10-23T09:24:24.159Z,48.87
2022-10-23T09:27:25.829Z,46.43
2022-10-23T09:30:28.399Z,43.63
2022-10-23T09:33:29.985Z,48.03
2022-10-23T09:36:32.501Z,40.58
2022-10-23T09:39:39.794Z,59.87
2022-10-23T09:43:00.546Z,55.23
2022-10-23T09:46:05.064Z,57.88
2022-10-23T09:49:07.561Z,69.80
2022-10-23T09:52:12.204Z,75.75
2022-10-23T09:55:31.607Z,84.67
2022-10-23T09:58:37.342Z,68.67
2022-10-23T10:01:53.425Z,56.83
2022-10-23T10:04:55.046Z,46.38
2022-10-23T10:08:18.331Z,27.35
2022-10-23T10:11:41.253Z,22.90
2022-10-23T10:15:05.102Z,18.90
2022-10-23T10:18:36.992Z,18.80
2022-10-23T10:22:00.233Z,20.88
2022-10-23T10:25:43.048Z,15.27
2022-10-23T10:29:10.763Z,14.67
2022-10-23T10:32:35.518Z,14.30
2022-10-23T10:35:38.443Z,14.07
2022-10-23T10:38:53.655Z,14.35
2022-10-23T10:42:08.830Z,11.60
2022-10-23T10:45:18.377Z,12.87
2022-10-23T10:48:49.697Z,12.23
2022-10-23T10:52:18.513Z,12.40
2022-10-23T10:55:50.646Z,11.68
2022-10-23T10:58:59.493Z,13.00
2022-10-23T11:02:27.844Z,11.00
2022-10-23T11:05:34.707Z,12.37
2022-10-23T11:08:49.780Z,10.98
2022-10-23T11:11:58.761Z,11.07
2022-10-23T11:15:00.380Z,11.32
2022-10-23T11:18:04.005Z,11.80
2022-10-23T11:21:17.454Z,11.13
2022-10-23T11:24:54.514Z,11.50
2022-10-23T11:28:20.810Z,12.90
2022-10-23T11:31:55.558Z,11.80
2022-10-23T11:35:09.343Z,11.93
2022-10-23T11:38:17.850Z,13.03
2022-10-23T11:41:26.556Z,13.25
2022-10-23T11:44:34.755Z,12.45
2022-10-23T11:47:40.520Z,13.25
2022-10-23T11:50:45.387Z,14.40
2022-10-23T11:53:50.825Z,12.97
2022-10-23T11:57:15.079Z,15.55
2022-10-23T12:00:23.339Z,14.00
2022-10-23T12:03:32.201Z,15.60
2022-10-23T12:06:40.032Z,13.17
2022-10-23T12:09:44.818Z,14.63
2022-10-23T12:12:55.863Z,13.63
2022-10-23T12:16:00.112Z,12.48
2022-10-23T12:19:16.569Z,14.88
2022-10-23T12:22:20.089Z,14.10
2022-10-23T12:25:27.360Z,14.23
2022-10-23T12:28:58.563Z,13.45
2022-10-23T12:32:03.047Z,13.52
2022-10-23T12:35:23.801Z,13.43
2022-10-23T12:38:26.408Z,12.60
2022-10-23T12:41:29.053Z,11.83
2022-10-23T12:44:30.891Z,10.63
2022-10-23T12:47:32.551Z,8.57
2022-10-23T12:50:34.475Z,6.35
2022-10-23T12:53:36.040Z,5.97
2022-10-23T12:56:39.030Z,4.80
2022-10-23T12:59:41.923Z,5.25
2022-10-23T13:02:43.633Z,4.80
2022-10-23T13:05:45.285Z,5.70
2022-10-23T13:08:51.821Z,4.70
2022-10-23T13:11:53.523Z,5.07
2022-10-23T13:15:12.526Z,5.75
2022-10-23T13:18:14.866Z,5.15
2022-10-23T13:21:27.107Z,5.40
2022-10-23T13:24:29.172Z,6.70
2022-10-23T13:27:34.870Z,5.53
2022-10-23T13:30:42.675Z,5.28
2022-10-23T13:33:52.739Z,6.65
2022-10-23T13:36:56.888Z,5.35
2022-10-23T13:40:07.678Z,5.10
2022-10-23T13:43:13.423Z,6.00
2022-10-23T13:46:15.837Z,5.90
2022-10-23T13:49:17.598Z,4.68
2022-10-23T13:52:20.790Z,4.50
2022-10-23T13:55:23.393Z,5.20
2022-10-23T13:58:25.003Z,4.77
2022-10-23T14:01:29.449Z,5.15
2022-10-23T14:04:31.069Z,5.45
2022-10-23T14:07:32.648Z,6.13
2022-10-23T14:10:35.068Z,9.40
2022-10-23T14:13:39.531Z,7.17
2022-10-23T14:16:41.083Z,7.45
2022-10-23T14:19:42.717Z,6.47
2022-10-23T14:22:44.554Z,6.85
2022-10-23T14:25:46.366Z,6.30
2022-10-23T14:28:48.021Z,7.40
2022-10-23T14:31:49.629Z,8.15
2022-10-23T14:34:53.322Z,8.88
2022-10-23T14:37:54.900Z,8.85
2022-10-23T14:40:59.453Z,9.43
2022-10-23T14:44:04.964Z,8.67
2022-10-23T14:47:06.561Z,9.68
2022-10-23T14:50:09.987Z,8.85
2022-10-23T14:53:11.720Z,8.90
2022-10-23T14:56:18.006Z,11.10
2022-10-23T14:59:19.616Z,10.23
2022-10-23T15:02:21.200Z,9.90
2022-10-23T15:05:22.849Z,9.68
2022-10-23T15:08:24.896Z,10.27
2022-10-23T15:11:29.445Z,9.53
2022-10-23T15:14:31.163Z,8.77
2022-10-23T15:17:34.056Z,9.75
2022-10-23T15:20:35.672Z,8.23
2022-10-23T15:23:38.828Z,9.10
2022-10-23T15:26:47.066Z,9.17
2022-10-23T15:29:48.674Z,9.00
2022-10-23T15:32:50.259Z,10.70
2022-10-23T15:35:52.165Z,10.82
2022-10-23T15:38:53.758Z,12.05
2022-10-23T15:41:59.319Z,10.43
2022-10-23T15:45:00.870Z,10.40
2022-10-23T15:48:02.511Z,9.30
2022-10-23T15:51:04.199Z,11.07
2022-10-23T15:54:06.657Z,8.40
2022-10-23T15:57:08.205Z,8.43
2022-10-23T16:00:10.535Z,11.73
2022-10-23T16:03:12.099Z,8.00
2022-10-23T16:06:14.519Z,8.13
2022-10-23T16:09:16.272Z,7.40
2022-10-23T16:12:18.432Z,7.90
2022-10-23T16:15:20.112Z,8.07
2022-10-23T16:18:22.380Z,7.97
2022-10-23T16:21:25.893Z,9.02
2022-10-23T16:24:27.517Z,8.15
2022-10-23T16:27:32.551Z,8.67
2022-10-23T16:30:34.147Z,8.23
2022-10-23T16:33:35.783Z,10.25
2022-10-23T16:36:40.430Z,10.88
2022-10-23T16:39:42.009Z,11.70
2022-10-23T16:42:43.981Z,9.67
2022-10-23T16:45:45.678Z,11.47
2022-10-23T16:48:47.446Z,11.68
2022-10-23T16:51:49.073Z,10.80
2022-10-23T16:54:50.688Z,11.10
2022-10-23T16:57:52.277Z,10.70
2022-10-23T17:01:04.415Z,13.40
2022-10-23T17:04:06.179Z,13.23
2022-10-23T17:07:07.777Z,17.38
2022-10-23T17:10:09.791Z,12.65
2022-10-23T17:13:11.401Z,15.10
2022-10-23T17:16:22.052Z,12.43
2022-10-23T17:19:45.253Z,13.60
2022-10-23T17:22:46.405Z,13.20
2022-10-23T17:25:49.542Z,12.18
2022-10-23T17:28:57.593Z,12.63
2022-10-23T17:31:59.274Z,14.30
2022-10-23T17:35:00.857Z,12.05
2022-10-23T17:38:02.439Z,13.25
2022-10-23T17:41:04.694Z,14.50
2022-10-23T17:44:06.309Z,13.70
2022-10-23T17:47:07.888Z,14.87
2022-10-23T17:50:12.270Z,15.27
2022-10-23T17:53:13.835Z,16.45
2022-10-23T17:56:19.233Z,15.57
2022-10-23T17:59:24.813Z,15.97
2022-10-23T18:02:26.728Z,19.33
2022-10-23T18:05:28.757Z,19.92
2022-10-23T18:08:30.491Z,18.15
2022-10-23T18:11:34.482Z,21.40
2022-10-23T18:14:37.524Z,20.47
2022-10-23T18:17:39.393Z,21.97
2022-10-23T18:20:41.092Z,24.50
2022-10-23T18:23:42.997Z,31.52
2022-10-23T18:26:46.067Z,31.40
2022-10-23T18:29:47.678Z,32.37
2022-10-23T18:32:49.305Z,32.97
2022-10-23T18:35:50.927Z,39.72
2022-10-23T18:38:52.789Z,45.90
2022-10-23T18:41:56.433Z,47.75
2022-10-23T18:45:00.797Z,40.63
2022-10-23T18:48:02.822Z,39.63
2022-10-23T18:51:04.493Z,38.72
2022-10-23T18:54:08.509Z,36.78
2022-10-23T18:57:10.152Z,36.40
2022-10-23T19:00:15.722Z,35.70
2022-10-23T19:03:17.327Z,31.63
2022-10-23T19:06:19.483Z,31.73
2022-10-23T19:09:21.101Z,35.35
2022-10-23T19:12:23.149Z,33.33
2022-10-23T19:15:24.709Z,32.43
2022-10-23T19:18:26.295Z,30.53
2022-10-23T19:21:31.376Z,32.72
2022-10-23T19:24:45.576Z,31.10
2022-10-23T19:27:47.273Z,33.97
2022-10-23T19:30:51.970Z,37.63
2022-10-23T19:33:53.694Z,33.53
2022-10-23T19:36:55.417Z,33.53
2022-10-23T19:39:57.020Z,31.10
2022-10-23T19:42:58.716Z,32.08
2022-10-23T19:46:06.313Z,32.53
2022-10-23T19:49:11.034Z,32.43
2022-10-23T19:52:12.589Z,34.47
2022-10-23T19:55:14.210Z,36.50
2022-10-23T19:58:15.786Z,34.72
2022-10-23T20:01:22.867Z,36.17
2022-10-23T20:04:24.500Z,38.30
2022-10-23T20:07:26.122Z,36.20
2022-10-23T20:10:28.197Z,38.03
2022-10-23T20:13:29.847Z,37.40
2022-10-23T20:16:36.108Z,38.33
2022-10-23T20:19:37.786Z,37.60
2022-10-23T20:22:41.738Z,37.53
2022-10-23T20:25:44.749Z,36.75
2022-10-23T20:28:48.378Z,39.60
2022-10-23T20:31:53.542Z,38.80
2022-10-23T20:34:55.087Z,38.37
2022-10-23T20:37:56.638Z,37.20
2022-10-23T20:41:00.386Z,35.70
2022-10-23T20:44:02.003Z,34.83
2022-10-23T20:47:07.591Z,36.87
2022-10-23T20:50:09.339Z,33.83
2022-10-23T20:53:10.901Z,38.58
2022-10-23T20:56:14.586Z,36.63
2022-10-23T20:59:17.503Z,36.60
2022-10-23T21:02:19.179Z,42.07
2022-10-23T21:05:20.816Z,33.30
2022-10-23T21:08:22.371Z,37.17
2022-10-23T21:11:24.158Z,29.45
2022-10-23T21:14:25.722Z,32.08
2022-10-23T21:20:33.741Z,29.90
2022-10-23T21:23:36.138Z,30.52
2022-10-23T21:26:37.754Z,31.35
2022-10-23T21:29:42.156Z,33.15
2022-10-23T21:32:48.002Z,31.27
2022-10-23T21:35:58.365Z,34.13
2022-10-23T21:39:01.769Z,29.90
2022-10-23T21:42:03.427Z,28.20
2022-10-23T21:45:05.521Z,28.58
2022-10-23T21:48:11.064Z,28.93
2022-10-23T21:51:24.045Z,33.03
2022-10-23T21:54:25.677Z,32.65
2022-10-23T21:57:30.490Z,30.48
2022-10-23T22:00:35.526Z,29.83
2022-10-23T22:03:41.378Z,28.07
2022-10-23T22:06:43.501Z,30.40
2022-10-23T22:09:45.115Z,30.48
2022-10-23T22:12:46.681Z,31.85
2022-10-23T22:15:49.005Z,30.23
2022-10-23T22:18:53.643Z,31.43
2022-10-23T22:21:55.355Z,30.43
2022-10-23T22:24:56.945Z,31.35
2022-10-23T22:27:59.249Z,34.75
2022-10-23T22:31:01.420Z,31.77
2022-10-23T22:34:18.665Z,31.23
2022-10-23T22:37:29.265Z,38.27
2022-10-23T22:40:30.919Z,38.42
2022-10-23T22:43:32.534Z,40.15
2022-10-23T22:46:34.112Z,36.25
2022-10-23T22:49:38.873Z,41.53
2022-10-23T22:52:40.408Z,40.13
2022-10-23T22:55:42.982Z,43.33
2022-10-23T22:58:44.632Z,39.67
2022-10-23T23:01:46.810Z,39.05
2022-10-23T23:04:51.991Z,37.77
2022-10-23T23:07:53.591Z,36.90
2022-10-23T23:10:56.333Z,32.10
2022-10-23T23:13:58.002Z,33.08
2022-10-23T23:16:59.628Z,29.02
2022-10-23T23:20:05.171Z,31.13
2022-10-23T23:23:06.753Z,29.37
2022-10-23T23:26:08.675Z,30.52
2022-10-23T23:29:10.267Z,36.03
2022-10-23T23:32:11.848Z,33.85
2022-10-23T23:35:13.532Z,33.40
2022-10-23T23:38:15.133Z,33.50
2022-10-23T23:41:17.429Z,36.88
2022-10-23T23:44:19.040Z,31.60
2022-10-23T23:47:20.647Z,32.08
2022-10-23T23:50:26.153Z,32.47
2022-10-23T23:53:27.764Z,38.17
2022-10-23T23:56:29.547Z,31.70
2022-10-23T23:59:35.904Z,33.20
